createdAt,value
2018-05-17T00:01:05.965Z,11.30
2018-05-17T00:03:35.877Z,11.50
2018-05-17T00:06:03.594Z,11.50
2018-05-17T00:08:33.216Z,11.20
2018-05-17T00:11:01.850Z,11.40
2018-05-17T00:13:30.535Z,11.10
2018-05-17T00:15:59.687Z,11.00
2018-05-17T00:18:27.573Z,11.10
2018-05-17T00:20:55.549Z,11.10
2018-05-17T00:23:23.885Z,10.90
2018-05-17T00:25:56.309Z,11.20
2018-05-17T00:28:24.060Z,10.80
2018-05-17T00:30:52.904Z,11.10
2018-05-17T00:33:20.679Z,11.10
2018-05-17T00:35:50.010Z,11.10
2018-05-17T00:38:17.909Z,11.10
2018-05-17T00:40:45.454Z,11.10
2018-05-17T00:43:13.755Z,11.20
2018-05-17T00:45:41.515Z,11.30
2018-05-17T00:48:09.722Z,11.40
2018-05-17T00:50:37.838Z,11.20
2018-05-17T00:53:18.484Z,11.30
2018-05-17T00:55:46.332Z,11.20
2018-05-17T00:58:14.045Z,11.00
2018-05-17T01:00:44.056Z,11.00
2018-05-17T01:03:11.929Z,11.10
2018-05-17T01:05:40.595Z,11.00
2018-05-17T01:08:08.439Z,11.00
2018-05-17T01:10:37.176Z,10.90
2018-05-17T01:13:05.122Z,11.10
2018-05-17T01:15:35.460Z,11.00
2018-05-17T01:18:03.605Z,11.10
2018-05-17T01:20:32.450Z,11.00
2018-05-17T01:23:00.117Z,11.10
2018-05-17T01:25:28.864Z,11.10
2018-05-17T01:27:57.288Z,10.90
2018-05-17T01:30:25.720Z,10.80
2018-05-17T01:32:53.756Z,11.00
2018-05-17T01:35:21.682Z,10.80
2018-05-17T01:38:01.090Z,11.10
2018-05-17T01:40:28.861Z,11.10
2018-05-17T01:42:57.969Z,11.40
2018-05-17T01:45:26.296Z,11.10
2018-05-17T01:47:53.996Z,11.00
2018-05-17T01:50:21.654Z,11.00
2018-05-17T01:52:49.550Z,11.10
2018-05-17T01:55:18.380Z,10.80
2018-05-17T01:57:46.116Z,11.00
2018-05-17T02:00:15.299Z,11.00
2018-05-17T02:02:44.534Z,10.70
2018-05-17T02:05:12.342Z,11.00
2018-05-17T02:07:40.078Z,10.70
2018-05-17T02:10:08.074Z,11.10
2018-05-17T02:12:35.799Z,10.80
2018-05-17T02:15:04.144Z,11.00
2018-05-17T02:17:34.088Z,10.70
2018-05-17T02:20:02.608Z,10.80
2018-05-17T02:22:31.878Z,10.70
2018-05-17T02:25:00.707Z,10.80
2018-05-17T02:27:28.378Z,10.50
2018-05-17T02:29:57.764Z,10.60
2018-05-17T02:32:27.160Z,10.70
2018-05-17T02:34:54.809Z,11.00
2018-05-17T02:37:22.720Z,10.80
2018-05-17T02:39:56.313Z,10.80
2018-05-17T02:42:24.622Z,10.80
2018-05-17T02:44:52.907Z,11.00
2018-05-17T02:47:20.621Z,10.90
2018-05-17T02:49:48.524Z,10.70
2018-05-17T02:52:16.124Z,10.70
2018-05-17T02:54:45.148Z,11.10
2018-05-17T02:57:12.844Z,11.10
2018-05-17T02:59:40.489Z,11.10
2018-05-17T03:02:08.166Z,10.80
2018-05-17T03:04:36.061Z,10.70
2018-05-17T03:07:04.314Z,10.70
2018-05-17T03:09:33.871Z,10.80
2018-05-17T03:12:02.407Z,10.60
2018-05-17T03:14:30.485Z,10.60
2018-05-17T03:16:59.973Z,10.60
2018-05-17T03:19:29.008Z,10.70
2018-05-17T03:21:56.870Z,10.60
2018-05-17T03:24:25.543Z,10.80
2018-05-17T03:26:53.225Z,11.00
2018-05-17T03:29:22.789Z,10.90
2018-05-17T03:31:51.255Z,10.70
2018-05-17T03:34:19.342Z,10.80
2018-05-17T03:36:47.622Z,10.70
2018-05-17T03:39:15.224Z,10.80
2018-05-17T03:41:43.553Z,10.70
2018-05-17T03:44:11.508Z,10.70
2018-05-17T03:46:39.901Z,10.70
2018-05-17T03:49:08.861Z,10.70
2018-05-17T03:51:36.671Z,10.60
2018-05-17T03:54:05.118Z,10.50
2018-05-17T03:56:32.736Z,10.70
2018-05-17T03:59:00.325Z,10.70
2018-05-17T04:01:39.661Z,11.00
2018-05-17T04:04:19.324Z,10.70
2018-05-17T04:06:46.917Z,10.70
2018-05-17T04:09:18.194Z,10.70
2018-05-17T04:11:46.144Z,10.80
2018-05-17T04:14:14.488Z,10.60
2018-05-17T04:16:42.876Z,10.70
2018-05-17T04:19:10.566Z,10.80
2018-05-17T04:21:38.208Z,10.50
2018-05-17T04:24:07.142Z,10.20
2018-05-17T04:26:34.774Z,10.70
2018-05-17T04:29:02.857Z,10.60
2018-05-17T04:31:31.368Z,10.60
2018-05-17T04:33:59.826Z,10.80
2018-05-17T04:36:27.432Z,10.80
2018-05-17T04:38:55.972Z,11.00
2018-05-17T04:41:23.564Z,11.00
2018-05-17T04:43:52.015Z,10.90
2018-05-17T04:46:19.867Z,11.00
2018-05-17T04:48:49.046Z,11.00
2018-05-17T04:51:17.027Z,10.70
2018-05-17T04:53:48.010Z,10.60
2018-05-17T04:56:17.060Z,11.00
2018-05-17T04:58:45.056Z,11.00
2018-05-17T05:01:12.661Z,10.70
2018-05-17T05:03:40.246Z,10.70
2018-05-17T05:06:08.522Z,10.70
2018-05-17T05:08:36.126Z,10.80
2018-05-17T05:11:03.735Z,10.70
2018-05-17T05:13:31.368Z,10.60
2018-05-17T05:15:59.654Z,10.70
2018-05-17T05:18:28.730Z,10.80
2018-05-17T05:20:56.279Z,11.00
2018-05-17T05:23:24.611Z,11.00
2018-05-17T05:25:52.151Z,11.10
2018-05-17T05:28:19.755Z,11.00
2018-05-17T05:30:47.675Z,10.80
2018-05-17T05:33:15.247Z,11.10
2018-05-17T05:35:42.797Z,11.00
2018-05-17T05:38:10.359Z,11.00
2018-05-17T05:40:37.925Z,11.20
2018-05-17T05:43:05.469Z,11.40
2018-05-17T05:45:33.037Z,11.10
2018-05-17T05:48:00.560Z,11.10
2018-05-17T05:50:28.150Z,11.00
2018-05-17T05:52:55.664Z,10.90
2018-05-17T05:55:23.269Z,11.10
2018-05-17T05:57:50.918Z,11.00
2018-05-17T06:00:18.504Z,11.00
2018-05-17T06:02:46.224Z,11.10
2018-05-17T06:05:14.076Z,11.00
2018-05-17T06:07:41.626Z,10.90
2018-05-17T06:10:09.944Z,11.10
2018-05-17T06:12:37.510Z,11.00
2018-05-17T06:15:05.829Z,11.10
2018-05-17T06:17:33.396Z,10.90
2018-05-17T06:20:01.686Z,11.00
2018-05-17T06:22:29.294Z,11.10
2018-05-17T06:24:58.386Z,11.00
2018-05-17T06:27:25.933Z,11.10
2018-05-17T06:29:53.504Z,11.20
2018-05-17T06:32:22.042Z,11.10
2018-05-17T06:34:49.593Z,11.40
2018-05-17T06:37:17.166Z,11.30
2018-05-17T06:39:44.758Z,11.20
2018-05-17T06:42:12.330Z,11.40
2018-05-17T06:44:39.878Z,11.30
2018-05-17T06:47:07.501Z,11.40
2018-05-17T06:49:35.048Z,11.20
2018-05-17T06:52:02.633Z,11.40
2018-05-17T06:54:30.228Z,11.40
2018-05-17T06:56:58.539Z,11.40
2018-05-17T06:59:26.147Z,11.40
2018-05-17T07:01:53.703Z,11.30
2018-05-17T07:04:21.827Z,11.40
2018-05-17T07:06:49.595Z,11.50
2018-05-17T07:09:17.133Z,11.60
2018-05-17T07:11:44.724Z,11.70
2018-05-17T07:14:12.483Z,11.70
2018-05-17T07:16:40.019Z,11.80
2018-05-17T07:19:08.151Z,11.70
2018-05-17T07:21:37.215Z,11.50
2018-05-17T07:24:04.892Z,11.70
2018-05-17T07:26:32.490Z,11.50
2018-05-17T07:29:00.836Z,11.70
2018-05-17T07:31:28.449Z,11.60
2018-05-17T07:33:57.030Z,12.00
2018-05-17T07:36:24.621Z,11.90
2018-05-17T07:38:52.158Z,12.10
2018-05-17T07:41:19.726Z,12.10
2018-05-17T07:43:47.260Z,12.00
2018-05-17T07:46:15.648Z,11.80
2018-05-17T07:48:43.183Z,11.90
2018-05-17T07:51:10.715Z,12.00
2018-05-17T07:53:39.095Z,11.90
2018-05-17T07:56:06.623Z,12.00
2018-05-17T07:58:34.202Z,12.00
2018-05-17T08:01:02.545Z,11.80
2018-05-17T08:03:30.175Z,12.00
2018-05-17T08:05:57.823Z,12.00
2018-05-17T08:08:25.406Z,12.10
2018-05-17T08:10:52.978Z,12.10
2018-05-17T08:13:20.534Z,12.10
2018-05-17T08:15:48.103Z,12.10
2018-05-17T08:18:15.670Z,12.20
2018-05-17T08:20:43.229Z,12.20
2018-05-17T08:23:10.818Z,12.40
2018-05-17T08:25:39.252Z,12.20
2018-05-17T08:28:06.831Z,12.30
2018-05-17T08:30:34.406Z,12.40
2018-05-17T08:33:01.993Z,12.50
2018-05-17T08:35:29.574Z,12.40
2018-05-17T08:37:57.114Z,12.50
2018-05-17T08:40:24.688Z,12.50
2018-05-17T08:42:52.285Z,12.50
2018-05-17T08:45:20.602Z,12.60
2018-05-17T08:47:48.159Z,12.60
2018-05-17T08:50:15.687Z,12.50
2018-05-17T08:52:44.008Z,12.90
2018-05-17T08:55:11.537Z,12.80
2018-05-17T08:57:39.125Z,12.70
2018-05-17T09:00:06.706Z,12.70
2018-05-17T09:02:34.308Z,12.60
2018-05-17T09:05:01.890Z,12.50
2018-05-17T09:07:29.465Z,12.70
2018-05-17T09:09:57.869Z,12.50
2018-05-17T09:12:25.582Z,12.70
2018-05-17T09:14:53.112Z,12.70
2018-05-17T09:17:20.904Z,12.90
2018-05-17T09:19:48.449Z,12.80
2018-05-17T09:22:16.073Z,12.80
2018-05-17T09:24:43.709Z,12.60
2018-05-17T09:27:11.247Z,12.70
2018-05-17T09:29:38.843Z,12.70
2018-05-17T09:32:06.432Z,12.70
2018-05-17T09:34:34.363Z,12.80
2018-05-17T09:37:01.892Z,12.90
2018-05-17T09:39:30.626Z,13.00
2018-05-17T09:41:58.157Z,13.00
2018-05-17T09:44:25.756Z,13.00
2018-05-17T09:46:53.301Z,12.90
2018-05-17T09:49:21.647Z,13.10
2018-05-17T09:51:49.185Z,13.00
2018-05-17T09:54:16.761Z,13.10
2018-05-17T09:56:44.327Z,13.10
2018-05-17T09:59:12.138Z,13.00
2018-05-17T10:01:39.821Z,12.80
2018-05-17T10:04:07.570Z,13.00
2018-05-17T10:06:35.237Z,12.90
2018-05-17T10:09:02.828Z,12.80
2018-05-17T10:11:30.407Z,12.90
2018-05-17T10:13:58.011Z,13.10
2018-05-17T10:16:25.744Z,13.10
2018-05-17T10:18:54.076Z,13.10
2018-05-17T10:21:21.656Z,13.00
2018-05-17T10:23:49.242Z,13.20
2018-05-17T10:26:16.782Z,13.30
2018-05-17T10:28:44.351Z,13.20
2018-05-17T10:31:13.477Z,12.90
2018-05-17T10:33:41.850Z,13.30
2018-05-17T10:36:09.412Z,12.90
2018-05-17T10:38:37.176Z,13.00
2018-05-17T10:41:04.736Z,13.00
2018-05-17T10:43:33.031Z,13.00
2018-05-17T10:46:00.638Z,13.10
2018-05-17T10:48:28.233Z,13.00
2018-05-17T10:50:55.775Z,13.10
2018-05-17T10:53:23.341Z,13.10
2018-05-17T10:55:50.935Z,13.10
2018-05-17T10:58:19.259Z,13.20
2018-05-17T11:00:46.929Z,13.20
2018-05-17T11:03:14.444Z,13.30
2018-05-17T11:05:42.838Z,13.20
2018-05-17T11:08:10.371Z,13.10
2018-05-17T11:10:37.944Z,13.30
2018-05-17T11:13:06.284Z,13.50
2018-05-17T11:15:34.651Z,13.60
2018-05-17T11:18:02.183Z,13.70
2018-05-17T11:20:29.946Z,13.50
2018-05-17T11:22:57.502Z,13.40
2018-05-17T11:25:25.069Z,13.50
2018-05-17T11:27:52.707Z,13.50
2018-05-17T11:30:20.285Z,13.40
2018-05-17T11:32:47.873Z,13.40
2018-05-17T11:35:16.165Z,13.50
2018-05-17T11:37:44.056Z,13.70
2018-05-17T11:40:11.606Z,13.50
2018-05-17T11:42:39.632Z,13.40
2018-05-17T11:45:08.161Z,13.50
2018-05-17T11:47:35.748Z,13.50
2018-05-17T11:50:03.569Z,13.60
2018-05-17T11:52:31.139Z,13.70
2018-05-17T11:54:58.698Z,13.70
2018-05-17T11:57:26.531Z,13.80
2018-05-17T11:59:54.124Z,13.80
2018-05-17T12:02:21.651Z,13.80
2018-05-17T12:04:50.382Z,13.70
2018-05-17T12:07:18.453Z,13.70
2018-05-17T12:09:46.323Z,13.70
2018-05-17T12:12:14.135Z,13.80
2018-05-17T12:14:43.486Z,13.70
2018-05-17T12:17:11.227Z,13.70
2018-05-17T12:19:38.915Z,13.60
2018-05-17T12:22:06.499Z,13.60
2018-05-17T12:24:34.072Z,13.60
2018-05-17T12:27:01.693Z,13.50
2018-05-17T12:29:29.280Z,13.60
2018-05-17T12:31:56.970Z,13.40
2018-05-17T12:34:24.445Z,13.20
2018-05-17T12:36:52.174Z,13.10
2018-05-17T12:39:20.519Z,13.30
2018-05-17T12:41:48.158Z,13.10
2018-05-17T12:44:16.553Z,13.40
2018-05-17T12:46:43.867Z,13.40
2018-05-17T12:49:11.401Z,13.30
2018-05-17T12:51:39.792Z,13.10
2018-05-17T12:54:07.390Z,13.30
2018-05-17T12:56:35.235Z,13.20
2018-05-17T12:59:04.127Z,13.20
2018-05-17T13:01:31.726Z,13.20
2018-05-17T13:03:59.297Z,13.20
2018-05-17T13:06:26.836Z,13.00
2018-05-17T13:08:54.400Z,12.90
2018-05-17T13:11:23.045Z,13.10
2018-05-17T13:13:50.625Z,13.20
2018-05-17T13:16:18.149Z,13.00
2018-05-17T13:18:46.463Z,12.90
2018-05-17T13:21:14.103Z,12.80
2018-05-17T13:23:41.663Z,12.70
2018-05-17T13:26:09.229Z,13.00
2018-05-17T13:28:36.818Z,13.10
2018-05-17T13:31:04.390Z,13.20
2018-05-17T13:33:31.943Z,13.20
2018-05-17T13:35:59.507Z,13.20
2018-05-17T13:38:28.220Z,13.00
2018-05-17T13:40:56.774Z,13.00
2018-05-17T13:43:25.075Z,12.90
2018-05-17T13:45:52.617Z,13.00
2018-05-17T13:48:21.175Z,12.90
2018-05-17T13:50:49.597Z,12.80
2018-05-17T13:53:17.407Z,13.00
2018-05-17T13:55:45.226Z,13.10
2018-05-17T13:58:13.639Z,13.00
2018-05-17T14:00:41.182Z,13.10
2018-05-17T14:03:08.730Z,13.20
2018-05-17T14:05:36.274Z,13.30
2018-05-17T14:08:03.846Z,13.40
2018-05-17T14:10:31.806Z,13.30
2018-05-17T14:12:59.352Z,13.20
2018-05-17T14:15:27.007Z,13.00
2018-05-17T14:17:54.464Z,13.10
2018-05-17T14:20:22.042Z,13.10
2018-05-17T14:22:49.700Z,13.00
2018-05-17T14:25:17.264Z,13.00
2018-05-17T14:27:45.680Z,12.90
2018-05-17T14:30:14.587Z,12.90
2018-05-17T14:32:42.172Z,12.90
2018-05-17T14:35:09.738Z,13.00
2018-05-17T14:37:37.261Z,13.00
2018-05-17T14:40:04.822Z,12.90
2018-05-17T14:42:32.360Z,12.80
2018-05-17T14:44:59.938Z,12.90
2018-05-17T14:47:28.228Z,12.80
2018-05-17T14:49:56.575Z,12.60
2018-05-17T14:52:24.184Z,12.90
2018-05-17T14:54:51.720Z,12.70
2018-05-17T14:57:19.290Z,12.90
2018-05-17T14:59:47.251Z,12.90
2018-05-17T15:02:14.820Z,12.90
2018-05-17T15:04:42.408Z,13.00
2018-05-17T15:07:10.758Z,13.10
2018-05-17T15:09:38.373Z,13.30
2018-05-17T15:12:07.014Z,12.90
2018-05-17T15:14:34.579Z,13.00
2018-05-17T15:17:02.182Z,12.90
2018-05-17T15:19:29.768Z,13.00
2018-05-17T15:21:57.365Z,13.00
2018-05-17T15:24:24.988Z,13.10
2018-05-17T15:26:52.571Z,13.00
2018-05-17T15:29:20.176Z,12.80
2018-05-17T15:31:47.742Z,12.60
2018-05-17T15:34:15.266Z,12.70
2018-05-17T15:36:42.829Z,12.80
2018-05-17T15:39:11.131Z,12.90
2018-05-17T15:41:38.729Z,12.70
2018-05-17T15:44:06.272Z,12.80
2018-05-17T15:46:33.867Z,12.70
2018-05-17T15:49:01.395Z,12.70
2018-05-17T15:51:29.049Z,12.60
2018-05-17T15:53:56.600Z,12.60
2018-05-17T15:56:24.129Z,12.60
2018-05-17T15:58:52.463Z,12.80
2018-05-17T16:01:19.989Z,12.50
2018-05-17T16:03:47.600Z,12.60
2018-05-17T16:06:15.914Z,12.70
2018-05-17T16:08:44.404Z,12.70
2018-05-17T16:11:12.017Z,12.70
2018-05-17T16:13:39.606Z,12.80
2018-05-17T16:16:07.906Z,12.80
2018-05-17T16:18:36.024Z,12.60
2018-05-17T16:21:04.383Z,12.70
2018-05-17T16:23:31.940Z,12.70
2018-05-17T16:25:59.524Z,12.70
2018-05-17T16:28:27.100Z,12.80
2018-05-17T16:30:54.945Z,12.90
2018-05-17T16:33:23.445Z,12.90
2018-05-17T16:35:50.971Z,12.80
2018-05-17T16:38:20.019Z,13.20
2018-05-17T16:40:47.548Z,13.20
2018-05-17T16:43:15.333Z,13.20
2018-05-17T16:45:42.883Z,13.20
2018-05-17T16:48:10.565Z,13.30
2018-05-17T16:50:38.800Z,13.30
2018-05-17T16:53:07.332Z,13.30
2018-05-17T16:55:34.829Z,13.20
2018-05-17T16:58:02.395Z,13.30
2018-05-17T17:00:29.948Z,13.30
2018-05-17T17:02:57.538Z,13.30
2018-05-17T17:05:26.312Z,13.10
2018-05-17T17:07:54.623Z,12.90
2018-05-17T17:10:22.204Z,12.90
2018-05-17T17:12:50.513Z,12.60
2018-05-17T17:15:18.117Z,12.60
2018-05-17T17:17:45.763Z,12.70
2018-05-17T17:20:13.285Z,12.50
2018-05-17T17:22:40.817Z,12.40
2018-05-17T17:25:08.911Z,12.30
2018-05-17T17:27:36.478Z,12.10
2018-05-17T17:30:05.007Z,12.00
2018-05-17T17:32:32.561Z,11.90
2018-05-17T17:35:00.139Z,11.70
2018-05-17T17:37:27.709Z,11.70
2018-05-17T17:39:56.046Z,11.60
2018-05-17T17:42:24.533Z,11.80
2018-05-17T17:44:52.065Z,11.50
2018-05-17T17:47:19.643Z,11.50
2018-05-17T17:49:47.245Z,11.60
2018-05-17T17:52:16.357Z,11.30
2018-05-17T17:54:43.929Z,11.60
2018-05-17T17:57:12.223Z,11.40
2018-05-17T17:59:40.406Z,11.40
2018-05-17T18:02:07.977Z,11.50
2018-05-17T18:04:36.310Z,11.50
2018-05-17T18:07:03.845Z,11.70
2018-05-17T18:09:31.425Z,11.70
2018-05-17T18:12:00.155Z,11.40
2018-05-17T18:14:27.727Z,11.40
2018-05-17T18:16:55.264Z,11.30
2018-05-17T18:19:23.893Z,11.20
2018-05-17T18:21:51.448Z,11.40
2018-05-17T18:24:19.010Z,11.40
2018-05-17T18:26:46.580Z,11.20
2018-05-17T18:29:15.007Z,11.20
2018-05-17T18:31:42.592Z,11.20
2018-05-17T18:34:10.921Z,11.40
2018-05-17T18:36:38.458Z,11.40
2018-05-17T18:39:06.050Z,11.10
2018-05-17T18:41:33.599Z,11.10
2018-05-17T18:44:01.999Z,10.90
2018-05-17T18:50:00.447Z,11.00
2018-05-17T18:52:28.017Z,10.90
2018-05-17T18:54:55.632Z,10.80
2018-05-17T18:57:23.309Z,10.80
2018-05-17T18:59:50.860Z,10.80
2018-05-17T19:02:18.488Z,11.10
2018-05-17T19:04:45.986Z,10.80
2018-05-17T19:07:13.610Z,10.60
2018-05-17T19:09:41.192Z,10.80
2018-05-17T19:12:08.949Z,10.60
2018-05-17T19:14:36.534Z,10.60
2018-05-17T19:17:04.116Z,10.70
2018-05-17T19:19:31.710Z,10.70
2018-05-17T19:21:59.245Z,10.40
2018-05-17T19:24:26.846Z,10.70
2018-05-17T19:26:54.417Z,10.50
2018-05-17T19:29:21.956Z,10.20
2018-05-17T19:31:49.570Z,10.30
2018-05-17T19:34:17.902Z,10.40
2018-05-17T19:36:46.366Z,10.30
2018-05-17T19:39:13.953Z,10.40
2018-05-17T19:41:41.526Z,10.30
2018-05-17T19:44:09.085Z,10.30
2018-05-17T19:46:36.656Z,10.20
2018-05-17T19:49:05.291Z,10.20
2018-05-17T19:51:34.322Z,10.40
2018-05-17T19:54:01.923Z,10.10
2018-05-17T19:56:29.567Z,10.20
2018-05-17T19:58:57.886Z,10.40
2018-05-17T20:01:25.777Z,10.60
2018-05-17T20:03:53.364Z,10.10
2018-05-17T20:06:21.797Z,10.10
2018-05-17T20:08:49.390Z,9.90
2018-05-17T20:11:17.800Z,10.00
2018-05-17T20:13:45.355Z,10.00
2018-05-17T20:16:13.043Z,10.10
2018-05-17T20:18:40.708Z,9.90
2018-05-17T20:21:09.043Z,10.10
2018-05-17T20:23:36.677Z,9.90
2018-05-17T20:26:04.222Z,10.00
2018-05-17T20:28:32.609Z,10.00
2018-05-17T20:31:00.166Z,10.00
2018-05-17T20:33:27.699Z,10.10
2018-05-17T20:35:55.254Z,9.60
2018-05-17T20:38:22.797Z,9.70
2018-05-17T20:40:50.322Z,10.00
2018-05-17T20:43:17.875Z,9.60
2018-05-17T20:45:45.400Z,9.80
2018-05-17T20:48:12.992Z,10.00
2018-05-17T20:50:41.328Z,9.80
2018-05-17T20:53:08.910Z,10.00
2018-05-17T20:55:36.467Z,9.50
2018-05-17T20:58:04.036Z,10.00
2018-05-17T21:00:32.398Z,9.80
2018-05-17T21:03:00.042Z,9.70
2018-05-17T21:05:30.055Z,9.60
2018-05-17T21:07:58.342Z,9.60
2018-05-17T21:10:25.928Z,9.50
2018-05-17T21:12:54.713Z,9.60
2018-05-17T21:15:22.255Z,9.50
2018-05-17T21:17:49.871Z,9.60
2018-05-17T21:20:17.413Z,9.60
2018-05-17T21:22:45.751Z,9.50
2018-05-17T21:25:14.109Z,9.60
2018-05-17T21:27:41.624Z,9.50
2018-05-17T21:30:09.180Z,9.60
2018-05-17T21:32:36.764Z,9.40
2018-05-17T21:35:04.343Z,9.40
2018-05-17T21:37:32.779Z,9.30
2018-05-17T21:40:00.353Z,9.50
2018-05-17T21:42:27.923Z,9.60
2018-05-17T21:44:55.559Z,9.50
2018-05-17T21:47:23.079Z,9.60
2018-05-17T21:49:50.648Z,9.60
2018-05-17T21:52:18.200Z,9.60
2018-05-17T21:54:46.887Z,9.30
2018-05-17T21:57:16.722Z,9.30
2018-05-17T21:59:44.479Z,9.40
2018-05-17T22:02:12.047Z,9.20
2018-05-17T22:04:39.590Z,9.40
2018-05-17T22:07:07.129Z,9.30
2018-05-17T22:09:34.810Z,9.40
2018-05-17T22:12:02.346Z,9.20
2018-05-17T22:14:30.150Z,9.20
2018-05-17T22:16:57.708Z,9.30
2018-05-17T22:19:25.252Z,9.30
2018-05-17T22:21:52.847Z,9.40
2018-05-17T22:24:20.440Z,9.20
2018-05-17T22:26:47.965Z,9.20
2018-05-17T22:29:15.549Z,9.20
2018-05-17T22:31:43.103Z,9.20
2018-05-17T22:34:11.435Z,9.20
2018-05-17T22:36:38.995Z,9.10
2018-05-17T22:39:06.582Z,8.90
2018-05-17T22:41:34.898Z,9.00
2018-05-17T22:44:02.474Z,8.90
2018-05-17T22:46:30.471Z,9.00
2018-05-17T22:48:58.038Z,8.90
2018-05-17T22:51:25.556Z,8.90
2018-05-17T22:53:53.118Z,8.90
2018-05-17T22:56:33.484Z,8.90
2018-05-17T22:59:01.027Z,8.90
2018-05-17T23:01:29.508Z,8.80
2018-05-17T23:03:57.477Z,9.00
2018-05-17T23:06:25.057Z,8.80
2018-05-17T23:08:53.697Z,8.60
2018-05-17T23:11:21.276Z,9.00
2018-05-17T23:13:48.850Z,8.70
2018-05-17T23:16:16.430Z,8.60
2018-05-17T23:18:44.054Z,8.70
2018-05-17T23:21:11.765Z,8.60
2018-05-17T23:23:39.495Z,9.00
2018-05-17T23:26:08.191Z,8.60
2018-05-17T23:28:36.504Z,8.60
2018-05-17T23:31:04.381Z,8.80
2018-05-17T23:33:31.962Z,9.00
2018-05-17T23:35:59.800Z,8.60
2018-05-17T23:38:27.323Z,8.60
2018-05-17T23:41:15.784Z,8.50
2018-05-17T23:43:43.333Z,8.60
2018-05-17T23:46:11.432Z,8.30
2018-05-17T23:48:39.020Z,8.50
2018-05-17T23:51:06.607Z,8.60
2018-05-17T23:53:34.189Z,8.50
2018-05-17T23:56:01.781Z,8.40
2018-05-17T23:58:29.305Z,8.60
